createdAt,value
2023-05-24T00:00:18.633Z,100229.09
2023-05-24T00:02:46.532Z,100228.44
2023-05-24T00:05:16.716Z,100227.78
2023-05-24T00:07:46.214Z,100229.16
2023-05-24T00:10:14.207Z,100228.28
2023-05-24T00:12:42.312Z,100226.53
2023-05-24T00:15:10.724Z,100230.97
2023-05-24T00:17:41.194Z,100229.59
2023-05-24T00:20:12.027Z,100219.66
2023-05-24T00:22:40.384Z,100223.38
2023-05-24T00:25:10.640Z,100221.31
2023-05-24T00:27:39.067Z,100223.44
2023-05-24T00:30:08.486Z,100212.66
2023-05-24T00:32:36.667Z,100213.84
2023-05-24T00:35:04.925Z,100204.94
2023-05-24T00:37:32.693Z,100202.25
2023-05-24T00:40:00.398Z,100205.19
2023-05-24T00:42:29.527Z,100201.34
2023-05-24T00:44:57.272Z,100200.31
2023-05-24T00:47:25.458Z,100193.78
2023-05-24T00:49:53.574Z,100197.94
2023-05-24T00:52:22.172Z,100191.28
2023-05-24T00:54:50.130Z,100184.28
2023-05-24T00:57:18.912Z,100177.84
2023-05-24T00:59:48.418Z,100181.44
2023-05-24T01:02:17.106Z,100185.13
2023-05-24T01:04:45.061Z,100185.31
2023-05-24T01:07:22.760Z,100182.00
2023-05-24T01:10:05.747Z,100184.66
2023-05-24T01:12:43.955Z,100187.66
2023-05-24T01:15:23.406Z,100192.94
2023-05-24T01:18:01.686Z,100191.13
2023-05-24T01:20:33.478Z,100197.25
2023-05-24T01:23:31.125Z,100194.31
2023-05-24T01:26:14.627Z,100193.97
2023-05-24T01:28:44.462Z,100190.19
2023-05-24T01:31:13.786Z,100200.59
2023-05-24T01:33:42.949Z,100198.13
2023-05-24T01:36:11.060Z,100193.00
2023-05-24T01:38:40.260Z,100205.25
2023-05-24T01:41:22.560Z,100206.72
2023-05-24T01:43:57.377Z,100200.44
2023-05-24T01:46:36.367Z,100208.41
2023-05-24T01:49:12.338Z,100204.09
2023-05-24T01:51:45.060Z,100220.03
2023-05-24T01:54:15.022Z,100216.50
2023-05-24T01:56:45.268Z,100222.00
2023-05-24T01:59:16.084Z,100217.84
2023-05-24T02:01:44.159Z,100220.34
2023-05-24T02:04:12.479Z,100212.53
2023-05-24T02:06:40.247Z,100206.75
2023-05-24T02:09:08.033Z,100221.03
2023-05-24T02:11:35.815Z,100220.66
2023-05-24T02:14:03.526Z,100224.97
2023-05-24T02:16:33.282Z,100224.69
2023-05-24T02:19:01.169Z,100225.31
2023-05-24T02:21:29.188Z,100232.63
2023-05-24T02:23:57.023Z,100231.75
2023-05-24T02:26:24.767Z,100237.38
2023-05-24T02:28:52.596Z,100231.94
2023-05-24T02:31:21.613Z,100224.63
2023-05-24T02:33:51.277Z,100224.31
2023-05-24T02:36:19.186Z,100235.03
2023-05-24T02:38:46.953Z,100224.47
2023-05-24T02:41:18.263Z,100225.47
2023-05-24T02:43:46.140Z,100228.78
2023-05-24T02:46:14.301Z,100228.63
2023-05-24T02:48:42.286Z,100229.19
2023-05-24T02:51:11.389Z,100228.59
2023-05-24T02:53:39.075Z,100223.81
2023-05-24T02:56:07.526Z,100222.00
2023-05-24T02:58:40.465Z,100221.16
2023-05-24T03:01:08.795Z,100224.31
2023-05-24T03:03:36.756Z,100227.28
2023-05-24T03:06:04.679Z,100214.81
2023-05-24T03:08:33.871Z,100221.81
2023-05-24T03:11:01.641Z,100223.31
2023-05-24T03:13:29.614Z,100234.03
2023-05-24T03:15:57.379Z,100223.63
2023-05-24T03:18:25.168Z,100225.94
2023-05-24T03:20:53.042Z,100222.97
2023-05-24T03:23:20.797Z,100229.56
2023-05-24T03:25:49.983Z,100235.88
2023-05-24T03:28:17.784Z,100233.19
2023-05-24T03:30:45.683Z,100233.19
2023-05-24T03:33:13.402Z,100234.31
2023-05-24T03:35:41.223Z,100229.00
2023-05-24T03:38:08.988Z,100232.13
2023-05-24T03:40:37.041Z,100228.41
2023-05-24T03:43:06.275Z,100231.50
2023-05-24T03:45:39.030Z,100231.28
2023-05-24T03:48:07.925Z,100230.91
2023-05-24T03:50:35.713Z,100234.25
2023-05-24T03:53:03.614Z,100229.81
2023-05-24T03:55:31.427Z,100237.28
2023-05-24T03:57:59.192Z,100235.88
2023-05-24T04:00:28.573Z,100239.94
2023-05-24T04:02:56.961Z,100239.53
2023-05-24T04:05:27.031Z,100238.59
2023-05-24T04:07:55.012Z,100234.47
2023-05-24T04:10:22.871Z,100233.91
2023-05-24T04:12:50.636Z,100240.91
2023-05-24T04:15:18.504Z,100240.13
2023-05-24T04:17:48.690Z,100244.53
2023-05-24T04:20:16.634Z,100239.69
2023-05-24T04:22:44.403Z,100245.13
2023-05-24T04:25:12.165Z,100244.47
2023-05-24T04:27:40.054Z,100243.50
2023-05-24T04:30:09.317Z,100250.16
2023-05-24T04:32:37.156Z,100234.81
2023-05-24T04:35:07.205Z,100233.47
2023-05-24T04:37:34.917Z,100238.66
2023-05-24T04:40:04.219Z,100229.09
2023-05-24T04:42:32.475Z,100239.69
2023-05-24T04:45:00.551Z,100242.03
2023-05-24T04:47:28.473Z,100241.50
2023-05-24T04:49:56.331Z,100249.66
2023-05-24T04:52:25.786Z,100247.19
2023-05-24T04:54:55.197Z,100249.84
2023-05-24T04:57:22.872Z,100250.94
2023-05-24T04:59:50.741Z,100259.94
2023-05-24T05:02:18.628Z,100252.44
2023-05-24T05:04:46.478Z,100253.56
2023-05-24T05:07:14.158Z,100253.44
2023-05-24T05:09:43.243Z,100257.50
2023-05-24T05:12:12.720Z,100264.00
2023-05-24T05:14:40.576Z,100256.69
2023-05-24T05:17:08.506Z,100258.28
2023-05-24T05:19:36.680Z,100270.66
2023-05-24T05:22:04.452Z,100268.72
2023-05-24T05:24:32.336Z,100261.44
2023-05-24T05:27:01.636Z,100256.97
2023-05-24T05:29:29.322Z,100266.28
2023-05-24T05:31:57.088Z,100264.47
2023-05-24T05:34:24.849Z,100268.25
2023-05-24T05:36:52.591Z,100269.44
2023-05-24T05:39:20.295Z,100273.19
2023-05-24T05:41:48.038Z,100269.75
2023-05-24T05:44:17.242Z,100276.19
2023-05-24T05:46:46.371Z,100278.03
2023-05-24T05:49:15.222Z,100270.44
2023-05-24T05:51:43.207Z,100267.78
2023-05-24T05:54:15.427Z,100270.88
2023-05-24T05:56:47.939Z,100273.75
2023-05-24T05:59:17.307Z,100275.41
2023-05-24T06:01:47.047Z,100274.84
2023-05-24T06:04:14.863Z,100287.06
2023-05-24T06:06:44.156Z,100278.91
2023-05-24T06:09:12.231Z,100286.94
2023-05-24T06:11:44.740Z,100286.53
2023-05-24T06:14:13.404Z,100288.75
2023-05-24T06:16:43.690Z,100282.63
2023-05-24T06:19:11.583Z,100289.53
2023-05-24T06:21:41.026Z,100288.25
2023-05-24T06:24:09.741Z,100287.84
2023-05-24T06:26:38.089Z,100287.19
2023-05-24T06:29:06.061Z,100283.69
2023-05-24T06:31:34.763Z,100289.81
2023-05-24T06:34:06.583Z,100293.16
2023-05-24T06:36:35.925Z,100292.13
2023-05-24T06:39:03.901Z,100292.41
2023-05-24T06:41:31.657Z,100283.44
2023-05-24T06:43:59.872Z,100304.31
2023-05-24T06:46:27.734Z,100293.69
2023-05-24T06:48:55.569Z,100306.38
2023-05-24T06:51:24.968Z,100316.53
2023-05-24T06:53:53.000Z,100300.50
2023-05-24T06:56:21.494Z,100302.56
2023-05-24T06:58:49.230Z,100307.53
2023-05-24T07:01:17.134Z,100299.28
2023-05-24T07:03:45.080Z,100297.16
2023-05-24T07:06:14.290Z,100305.06
2023-05-24T07:08:44.193Z,100306.03
2023-05-24T07:11:12.109Z,100309.00
2023-05-24T07:13:39.968Z,100309.25
2023-05-24T07:16:07.916Z,100306.81
2023-05-24T07:18:35.982Z,100316.91
2023-05-24T07:21:04.063Z,100322.88
2023-05-24T07:23:32.366Z,100324.25
2023-05-24T07:26:01.683Z,100322.09
2023-05-24T07:28:29.526Z,100319.88
2023-05-24T07:30:57.393Z,100315.38
2023-05-24T07:33:25.188Z,100313.44
2023-05-24T07:35:53.896Z,100316.59
2023-05-24T07:38:22.469Z,100317.75
2023-05-24T07:40:50.253Z,100311.94
2023-05-24T07:43:19.832Z,100309.09
2023-05-24T07:45:47.623Z,100304.44
2023-05-24T07:48:15.949Z,100303.22
2023-05-24T07:50:48.537Z,100304.69
2023-05-24T07:53:19.022Z,100309.28
2023-05-24T07:55:46.997Z,100308.38
2023-05-24T07:58:14.832Z,100308.03
2023-05-24T08:00:44.058Z,100305.19
2023-05-24T08:03:14.441Z,100311.69
2023-05-24T08:05:43.134Z,100303.19
2023-05-24T08:08:11.147Z,100297.19
2023-05-24T08:10:39.718Z,100299.22
2023-05-24T08:13:07.697Z,100308.13
2023-05-24T08:15:35.687Z,100296.13
2023-05-24T08:18:05.432Z,100304.09
2023-05-24T08:20:36.285Z,100291.09
2023-05-24T08:23:04.304Z,100300.56
2023-05-24T08:25:32.082Z,100296.31
2023-05-24T08:27:59.910Z,100296.03
2023-05-24T08:30:28.049Z,100292.56
2023-05-24T08:32:55.956Z,100289.41
2023-05-24T08:35:25.237Z,100293.78
2023-05-24T08:37:52.923Z,100294.31
2023-05-24T08:40:20.880Z,100293.22
2023-05-24T08:42:50.650Z,100303.28
2023-05-24T08:45:19.921Z,100303.88
2023-05-24T08:47:48.844Z,100316.44
2023-05-24T08:50:16.834Z,100314.09
2023-05-24T08:52:47.390Z,100321.88
2023-05-24T08:55:16.609Z,100318.97
2023-05-24T08:57:46.608Z,100322.22
2023-05-24T09:00:15.795Z,100332.91
2023-05-24T09:02:46.357Z,100316.53
2023-05-24T09:05:17.324Z,100324.28
2023-05-24T09:07:47.424Z,100316.94
2023-05-24T09:10:16.298Z,100320.78
2023-05-24T09:12:46.830Z,100329.84
2023-05-24T09:15:14.792Z,100327.16
2023-05-24T09:17:43.027Z,100320.59
2023-05-24T09:20:12.411Z,100323.81
2023-05-24T09:22:42.974Z,100321.16
2023-05-24T09:25:15.095Z,100316.28
2023-05-24T09:27:45.551Z,100314.03
2023-05-24T09:30:16.477Z,100315.91
2023-05-24T09:32:56.237Z,100309.09
2023-05-24T09:35:24.288Z,100304.56
2023-05-24T09:37:55.350Z,100301.06
2023-05-24T09:40:25.745Z,100297.72
2023-05-24T09:43:04.421Z,100299.63
2023-05-24T09:45:34.342Z,100305.94
2023-05-24T09:48:05.166Z,100298.97
2023-05-24T09:50:33.010Z,100299.31
2023-05-24T09:53:01.065Z,100303.25
2023-05-24T09:55:31.070Z,100302.22
2023-05-24T09:58:04.626Z,100305.84
2023-05-24T10:00:36.810Z,100299.69
2023-05-24T10:03:07.191Z,100291.16
2023-05-24T10:05:36.311Z,100288.91
2023-05-24T10:08:06.428Z,100287.63
2023-05-24T10:10:35.938Z,100287.34
2023-05-24T10:13:03.936Z,100285.28
2023-05-24T10:15:31.813Z,100294.72
2023-05-24T10:18:00.768Z,100294.97
2023-05-24T10:20:28.767Z,100294.25
2023-05-24T10:23:02.073Z,100293.13
2023-05-24T10:25:30.968Z,100289.22
2023-05-24T10:28:04.339Z,100284.47
2023-05-24T10:30:37.733Z,100290.75
2023-05-24T10:33:09.525Z,100294.56
2023-05-24T10:35:38.592Z,100279.75
2023-05-24T10:38:07.819Z,100284.66
2023-05-24T10:40:37.062Z,100285.00
2023-05-24T10:43:07.565Z,100290.22
2023-05-24T10:45:38.391Z,100279.31
2023-05-24T10:48:11.303Z,100272.72
2023-05-24T10:50:39.217Z,100260.91
2023-05-24T10:53:14.081Z,100261.50
2023-05-24T10:55:58.544Z,100257.72
2023-05-24T10:58:47.215Z,100264.25
2023-05-24T11:01:15.604Z,100263.53
2023-05-24T11:03:43.425Z,100247.97
2023-05-24T11:06:11.404Z,100255.25
2023-05-24T11:08:43.555Z,100256.00
2023-05-24T11:13:49.242Z,100253.47
2023-05-24T11:16:35.215Z,100253.97
2023-05-24T11:19:13.280Z,100243.63
2023-05-24T11:21:42.168Z,100245.97
2023-05-24T11:24:10.610Z,100245.69
2023-05-24T11:26:40.640Z,100236.38
2023-05-24T11:29:10.414Z,100243.63
2023-05-24T11:31:43.147Z,100241.03
2023-05-24T11:34:12.507Z,100245.00
2023-05-24T11:36:41.265Z,100242.50
2023-05-24T11:39:09.648Z,100235.34
2023-05-24T11:41:39.151Z,100235.28
2023-05-24T11:44:10.876Z,100222.91
2023-05-24T11:46:40.175Z,100221.56
2023-05-24T11:49:08.282Z,100226.38
2023-05-24T11:51:37.527Z,100225.31
2023-05-24T11:54:05.459Z,100236.44
2023-05-24T11:56:34.265Z,100233.16
2023-05-24T11:59:15.522Z,100231.84
2023-05-24T12:01:44.579Z,100217.34
2023-05-24T12:04:13.228Z,100219.06
2023-05-24T12:06:44.362Z,100223.97
2023-05-24T12:09:14.371Z,100215.28
2023-05-24T12:11:43.472Z,100222.44
2023-05-24T12:14:17.897Z,100210.25
2023-05-24T12:16:46.907Z,100207.25
2023-05-24T12:19:31.680Z,100215.19
2023-05-24T12:22:02.196Z,100210.59
2023-05-24T12:24:30.558Z,100216.97
2023-05-24T12:27:03.158Z,100217.41
2023-05-24T12:29:36.808Z,100217.59
2023-05-24T12:32:05.841Z,100214.88
2023-05-24T12:34:33.878Z,100210.50
2023-05-24T12:37:02.108Z,100217.09
2023-05-24T12:39:34.192Z,100202.38
2023-05-24T12:42:03.188Z,100199.22
2023-05-24T12:44:32.929Z,100204.19
2023-05-24T12:47:04.370Z,100207.13
2023-05-24T12:49:32.718Z,100198.34
2023-05-24T12:52:01.777Z,100194.84
2023-05-24T12:54:30.435Z,100206.50
2023-05-24T12:57:00.004Z,100183.31
2023-05-24T12:59:29.570Z,100178.75
2023-05-24T13:01:57.762Z,100195.22
2023-05-24T13:04:27.710Z,100185.47
2023-05-24T13:06:55.763Z,100186.22
2023-05-24T13:09:25.842Z,100180.25
2023-05-24T13:11:54.171Z,100187.09
2023-05-24T13:14:22.697Z,100190.91
2023-05-24T13:16:50.839Z,100187.91
2023-05-24T13:19:18.844Z,100178.59
2023-05-24T13:21:48.905Z,100176.06
2023-05-24T13:24:17.541Z,100163.03
2023-05-24T13:26:46.198Z,100159.41
2023-05-24T13:31:45.205Z,100164.56
2023-05-24T13:34:13.401Z,100163.16
2023-05-24T13:36:42.054Z,100157.69
2023-05-24T13:41:42.559Z,100160.31
2023-05-24T13:44:10.889Z,100161.09
2023-05-24T13:46:39.189Z,100154.81
2023-05-24T13:49:07.850Z,100160.41
2023-05-24T13:51:36.318Z,100159.81
2023-05-24T13:54:04.981Z,100168.19
2023-05-24T13:56:34.400Z,100161.59
2023-05-24T13:59:03.621Z,100165.16
2023-05-24T14:01:32.561Z,100160.91
2023-05-24T14:04:02.433Z,100159.56
2023-05-24T14:06:30.883Z,100169.56
2023-05-24T14:08:59.259Z,100173.72
2023-05-24T14:11:27.701Z,100175.94
2023-05-24T14:16:27.704Z,100170.03
2023-05-24T14:18:55.662Z,100163.13
2023-05-24T14:21:23.516Z,100171.72
2023-05-24T14:23:51.561Z,100155.47
2023-05-24T14:26:20.110Z,100166.84
2023-05-24T14:28:48.115Z,100168.13
2023-05-24T14:31:17.477Z,100171.69
2023-05-24T14:33:45.226Z,100162.53
2023-05-24T14:36:12.985Z,100171.34
2023-05-24T14:38:41.050Z,100159.47
2023-05-24T14:41:10.044Z,100163.47
2023-05-24T14:43:37.923Z,100170.44
2023-05-24T14:46:06.083Z,100172.47
2023-05-24T14:48:35.413Z,100175.72
2023-05-24T14:51:03.413Z,100182.94
2023-05-24T14:53:31.229Z,100175.25
2023-05-24T14:55:59.240Z,100171.56
2023-05-24T14:58:27.505Z,100178.09
2023-05-24T15:00:55.396Z,100174.13
2023-05-24T15:03:23.294Z,100167.66
2023-05-24T15:05:53.242Z,100164.00
2023-05-24T15:08:21.279Z,100166.47
2023-05-24T15:10:49.360Z,100164.63
2023-05-24T15:13:17.893Z,100169.72
2023-05-24T15:15:45.881Z,100162.22
2023-05-24T15:18:13.831Z,100164.38
2023-05-24T15:20:42.021Z,100166.22
2023-05-24T15:23:11.772Z,100167.25
2023-05-24T15:25:39.634Z,100166.06
2023-05-24T15:28:07.446Z,100162.47
2023-05-24T15:30:35.196Z,100167.16
2023-05-24T15:33:02.962Z,100176.06
2023-05-24T15:35:31.316Z,100176.69
2023-05-24T15:37:59.510Z,100175.38
2023-05-24T15:40:28.796Z,100177.81
2023-05-24T15:42:56.519Z,100179.41
2023-05-24T15:45:24.189Z,100180.25
2023-05-24T15:47:52.052Z,100185.22
2023-05-24T15:50:28.463Z,100175.81
2023-05-24T15:53:03.999Z,100187.66
2023-05-24T15:55:33.914Z,100184.03
2023-05-24T15:58:02.198Z,100176.22
2023-05-24T16:00:30.467Z,100177.31
2023-05-24T16:02:59.285Z,100175.41
2023-05-24T16:05:28.359Z,100177.44
2023-05-24T16:07:56.031Z,100177.78
2023-05-24T16:10:23.869Z,100180.91
2023-05-24T16:12:53.850Z,100176.25
2023-05-24T16:15:21.830Z,100179.00
2023-05-24T16:17:51.451Z,100178.97
2023-05-24T16:20:19.329Z,100171.81
2023-05-24T16:22:50.181Z,100169.28
2023-05-24T16:25:17.923Z,100168.66
2023-05-24T16:27:45.691Z,100171.56
2023-05-24T16:30:15.276Z,100170.81
2023-05-24T16:32:45.205Z,100169.47
2023-05-24T16:35:13.325Z,100172.69
2023-05-24T16:37:41.448Z,100172.34
2023-05-24T16:40:09.901Z,100170.69
2023-05-24T16:42:37.698Z,100173.72
2023-05-24T16:45:06.401Z,100167.66
2023-05-24T16:47:35.969Z,100162.44
2023-05-24T16:50:04.153Z,100161.88
2023-05-24T16:52:31.918Z,100167.81
2023-05-24T16:55:00.479Z,100165.41
2023-05-24T16:57:28.464Z,100160.44
2023-05-24T16:59:58.248Z,100170.81
2023-05-24T17:02:26.713Z,100166.00
2023-05-24T17:04:56.450Z,100161.06
2023-05-24T17:07:24.810Z,100167.81
2023-05-24T17:09:52.999Z,100162.56
2023-05-24T17:12:22.104Z,100163.63
2023-05-24T17:14:50.066Z,100169.09
2023-05-24T17:17:17.991Z,100161.03
2023-05-24T17:19:45.878Z,100166.63
2023-05-24T17:22:15.235Z,100156.03
2023-05-24T17:24:43.198Z,100162.66
2023-05-24T17:27:11.124Z,100166.59
2023-05-24T17:29:44.637Z,100166.44
2023-05-24T17:32:12.519Z,100172.38
2023-05-24T17:34:40.431Z,100163.91
2023-05-24T17:37:08.297Z,100172.34
2023-05-24T17:39:40.055Z,100177.28
2023-05-24T17:42:07.981Z,100178.69
2023-05-24T17:44:36.123Z,100173.78
2023-05-24T17:47:04.434Z,100181.94
2023-05-24T17:49:33.063Z,100176.69
2023-05-24T17:52:01.463Z,100182.00
2023-05-24T17:54:29.361Z,100181.34
2023-05-24T17:56:58.672Z,100178.00
2023-05-24T17:59:26.670Z,100184.22
2023-05-24T18:01:54.496Z,100186.97
2023-05-24T18:04:22.640Z,100192.31
2023-05-24T18:06:50.451Z,100181.34
2023-05-24T18:09:18.691Z,100190.56
2023-05-24T18:11:46.584Z,100195.34
2023-05-24T18:14:16.062Z,100192.69
2023-05-24T18:16:44.131Z,100196.09
2023-05-24T18:19:12.120Z,100202.19
2023-05-24T18:21:40.212Z,100203.84
2023-05-24T18:24:08.840Z,100203.19
2023-05-24T18:26:37.312Z,100202.69
2023-05-24T18:29:06.275Z,100197.59
2023-05-24T18:31:36.523Z,100198.16
2023-05-24T18:34:06.413Z,100202.84
2023-05-24T18:36:34.464Z,100200.97
2023-05-24T18:39:03.205Z,100205.19
2023-05-24T18:41:31.232Z,100206.69
2023-05-24T18:43:59.116Z,100205.34
2023-05-24T18:46:28.848Z,100204.41
2023-05-24T18:49:00.297Z,100204.16
2023-05-24T18:51:28.177Z,100207.75
2023-05-24T18:53:56.846Z,100207.22
2023-05-24T18:56:24.790Z,100207.09
2023-05-24T18:58:53.902Z,100203.25
2023-05-24T19:01:21.917Z,100205.16
2023-05-24T19:03:50.428Z,100208.19
2023-05-24T19:06:19.679Z,100209.31
2023-05-24T19:08:49.947Z,100206.81
2023-05-24T19:11:17.777Z,100206.06
2023-05-24T19:13:45.835Z,100204.19
2023-05-24T19:16:17.655Z,100212.69
2023-05-24T19:18:46.234Z,100208.75
2023-05-24T19:21:14.093Z,100219.09
2023-05-24T19:23:43.714Z,100222.06
2023-05-24T19:26:11.894Z,100224.91
2023-05-24T19:28:41.892Z,100217.50
2023-05-24T19:31:10.092Z,100222.63
2023-05-24T19:33:48.412Z,100221.06
2023-05-24T19:36:21.208Z,100217.56
2023-05-24T19:38:50.752Z,100229.53
2023-05-24T19:41:18.889Z,100221.34
2023-05-24T19:43:46.978Z,100230.38
2023-05-24T19:46:14.996Z,100232.97
2023-05-24T19:48:44.103Z,100245.47
2023-05-24T19:51:13.259Z,100241.31
2023-05-24T19:53:41.224Z,100243.63
2023-05-24T19:56:10.841Z,100245.22
2023-05-24T19:58:38.961Z,100246.31
2023-05-24T20:01:07.091Z,100240.31
2023-05-24T20:03:35.345Z,100252.94
2023-05-24T20:06:03.505Z,100249.38
2023-05-24T20:08:31.358Z,100251.81
2023-05-24T20:10:59.282Z,100251.88
2023-05-24T20:13:28.776Z,100258.34
2023-05-24T20:15:56.763Z,100252.72
2023-05-24T20:18:24.731Z,100254.47
2023-05-24T20:20:52.941Z,100243.53
2023-05-24T20:23:20.833Z,100250.78
2023-05-24T20:25:48.683Z,100252.72
2023-05-24T20:28:29.424Z,100264.59
2023-05-24T20:30:59.773Z,100257.31
2023-05-24T20:33:27.747Z,100264.72
2023-05-24T20:35:55.666Z,100258.88
2023-05-24T20:38:24.425Z,100259.22
2023-05-24T20:40:52.406Z,100253.06
2023-05-24T20:43:20.186Z,100262.81
2023-05-24T20:45:48.102Z,100258.66
2023-05-24T20:48:17.594Z,100258.78
2023-05-24T20:50:45.462Z,100258.50
2023-05-24T20:53:13.329Z,100261.78
2023-05-24T20:55:41.686Z,100270.19
2023-05-24T20:58:09.942Z,100263.88
2023-05-24T21:00:39.695Z,100260.50
2023-05-24T21:03:09.562Z,100266.97
2023-05-24T21:05:40.398Z,100266.72
2023-05-24T21:08:09.207Z,100271.09
2023-05-24T21:10:38.175Z,100271.78
2023-05-24T21:13:06.177Z,100266.22
2023-05-24T21:15:34.450Z,100278.09
2023-05-24T21:18:02.375Z,100272.59
2023-05-24T21:20:30.264Z,100275.16
2023-05-24T21:22:59.482Z,100275.56
2023-05-24T21:25:27.660Z,100276.88
2023-05-24T21:27:55.428Z,100278.94
2023-05-24T21:30:23.519Z,100273.75
2023-05-24T21:32:51.262Z,100284.16
2023-05-24T21:35:19.048Z,100283.03
2023-05-24T21:37:46.833Z,100269.94
2023-05-24T21:40:16.062Z,100275.91
2023-05-24T21:42:44.521Z,100282.19
2023-05-24T21:45:12.996Z,100278.25
2023-05-24T21:47:40.835Z,100277.41
2023-05-24T21:50:09.497Z,100284.91
2023-05-24T21:52:37.224Z,100289.47
2023-05-24T21:55:05.955Z,100284.72
2023-05-24T21:57:35.086Z,100287.81
2023-05-24T22:00:04.005Z,100287.84
2023-05-24T22:02:32.081Z,100291.13
2023-05-24T22:04:59.933Z,100285.16
2023-05-24T22:07:27.704Z,100284.84
2023-05-24T22:09:56.218Z,100295.66
2023-05-24T22:12:23.976Z,100292.88
2023-05-24T22:14:53.102Z,100291.03
2023-05-24T22:17:21.868Z,100290.28
2023-05-24T22:19:49.881Z,100289.66
2023-05-24T22:22:19.524Z,100288.75
2023-05-24T22:24:48.146Z,100286.34
2023-05-24T22:27:17.147Z,100295.78
2023-05-24T22:29:44.965Z,100298.00
2023-05-24T22:32:14.509Z,100296.44
2023-05-24T22:34:42.685Z,100293.38
2023-05-24T22:37:10.792Z,100298.13
2023-05-24T22:39:39.009Z,100303.72
2023-05-24T22:42:06.855Z,100309.13
2023-05-24T22:44:34.730Z,100299.31
2023-05-24T22:47:03.312Z,100303.22
2023-05-24T22:49:33.958Z,100298.19
2023-05-24T22:52:02.025Z,100299.06
2023-05-24T22:54:29.863Z,100301.38
2023-05-24T22:56:57.751Z,100295.56
2023-05-24T22:59:25.733Z,100303.06
2023-05-24T23:01:53.978Z,100306.59
2023-05-24T23:04:22.030Z,100304.94
2023-05-24T23:06:53.568Z,100302.59
2023-05-24T23:09:34.372Z,100302.97
2023-05-24T23:12:02.416Z,100305.13
2023-05-24T23:14:31.468Z,100302.53
2023-05-24T23:17:02.513Z,100303.84
2023-05-24T23:19:31.104Z,100301.09
2023-05-24T23:22:00.491Z,100303.25
2023-05-24T23:24:28.390Z,100305.91
2023-05-24T23:26:57.021Z,100317.22
2023-05-24T23:29:25.018Z,100316.56
2023-05-24T23:31:52.861Z,100314.22
2023-05-24T23:34:20.899Z,100306.91
2023-05-24T23:36:48.597Z,100312.72
2023-05-24T23:39:17.993Z,100304.94
2023-05-24T23:41:46.065Z,100317.66
2023-05-24T23:44:13.859Z,100317.84
2023-05-24T23:46:42.396Z,100310.56
2023-05-24T23:49:10.194Z,100304.59
2023-05-24T23:51:37.923Z,100301.31
2023-05-24T23:54:05.982Z,100303.09
2023-05-24T23:56:35.139Z,100308.25
2023-05-24T23:59:03.007Z,100299.91
